»·PEaware :: N153CD KSMX-KBFL

N153CD :: KSMX-KBFL

FLIGHT INFORMATION

Flight Status: Arrived
Operator: Privately registered:
United States
More flights under this callsign
Pilot: Jone M. (10385)
Aircraft: CIRRUS SR-20
(SR20)
More flights by this aircraft type
Origin: KSMX Santa Maria Pub/Capt Hancock
United States
Destination: KBFL Meadows
United States
More flights between these airports :: More routes between these airports
Route: +
File this flight plan on PilotEdge
Remarks:
Altitude:
(Current/Filed)
7,500ft
Speed:
(Current/Filed)
160kts
Departed: 07-Jan-19 01:01 PM
Arrived: 07-Jan-19 01:36 PM
Distance/Time
Traveled:
76nm/0:35
Distance/Time
To Go:
Arrived

Flight Plot

Page will automatically refresh every two minutes.


Map Options




Map Legend


Flown Route
Filed Route
Departure Airport
Arrival Airport
Navaid (VOR, NDB)
Fix

Horizontal Profiles

Position Reports

Time Latitude Longitude Heading Altitude Ground
Speed
07-Jan-19 12:47 34.897202 -120.446427 112 263ft 0kts
07-Jan-19 12:48 34.897202 -120.446427 112 263ft 0kts
07-Jan-19 12:49 34.897202 -120.446427 112 263ft 0kts
07-Jan-19 12:50 34.897202 -120.446427 112 263ft 0kts
07-Jan-19 12:51 34.897202 -120.446427 112 263ft 0kts
07-Jan-19 12:52 34.897202 -120.446427 112 263ft 0kts
07-Jan-19 12:53 34.896871 -120.446431 201 263ft 0kts
07-Jan-19 12:54 34.897195 -120.448639 316 263ft 15kts
07-Jan-19 12:55 34.900186 -120.452228 314 263ft 15kts
07-Jan-19 12:56 34.903244 -120.455880 315 263ft 15kts
07-Jan-19 12:57 34.906434 -120.459703 315 263ft 16kts
07-Jan-19 12:58 34.909062 -120.463252 266 263ft 4kts
07-Jan-19 12:59 34.908305 -120.464028 206 263ft 8kts
07-Jan-19 13:00 34.898435 -120.452618 133 502ft 96kts
07-Jan-19 13:01 34.900996 -120.426246 45 1585ft 105kts
07-Jan-19 13:02 34.916698 -120.395148 65 2508ft 111kts
07-Jan-19 13:03 34.930641 -120.361021 67 3400ft 114kts
07-Jan-19 13:04 34.947042 -120.319790 67 3530ft 150kts
07-Jan-19 13:05 34.965835 -120.272458 67 3528ft 156kts
07-Jan-19 13:06 34.984825 -120.224417 68 3500ft 159kts
07-Jan-19 13:07 35.002084 -120.182317 69 4337ft 130kts
07-Jan-19 13:08 35.017452 -120.142045 68 5048ft 132kts
07-Jan-19 13:09 35.033467 -120.100884 66 5702ft 135kts
07-Jan-19 13:10 35.050577 -120.057140 65 6013ft 156kts
07-Jan-19 13:11 35.070164 -120.007116 65 6010ft 166kts
07-Jan-19 13:12 35.090258 -119.955770 65 6010ft 167kts
07-Jan-19 13:13 35.110397 -119.904323 65 6025ft 166kts
07-Jan-19 13:14 35.131601 -119.856298 66 6280ft 159kts
07-Jan-19 13:15 35.151880 -119.813433 59 7013ft 136kts
07-Jan-19 13:16 35.170867 -119.772998 58 7618ft 137kts
07-Jan-19 13:17 35.189880 -119.732463 56 8196ft 137kts
07-Jan-19 13:18 35.208849 -119.692000 55 8756ft 136kts
07-Jan-19 13:19 35.228366 -119.650511 54 8981ft 152kts
07-Jan-19 13:20 35.249915 -119.604113 54 8976ft 157kts
07-Jan-19 13:21 35.271645 -119.557564 55 8974ft 156kts
07-Jan-19 13:22 35.282506 -119.505349 72 8974ft 159kts
07-Jan-19 13:23 35.292209 -119.452918 72 9020ft 157kts
07-Jan-19 13:24 35.301604 -119.401866 72 8300ft 148kts
07-Jan-19 13:25 35.310734 -119.353905 72 7016ft 143kts
07-Jan-19 13:26 35.320159 -119.307167 72 5728ft 138kts
07-Jan-19 13:27 35.329845 -119.262430 72 4464ft 135kts
07-Jan-19 13:28 35.340068 -119.218632 72 3203ft 132kts
07-Jan-19 13:29 35.349249 -119.180894 72 3022ft 117kts
07-Jan-19 13:30 35.359229 -119.139757 72 3019ft 130kts
07-Jan-19 13:31 35.367403 -119.100293 92 2646ft 115kts
07-Jan-19 13:32 35.374260 -119.064445 58 1921ft 113kts
07-Jan-19 13:33 35.396747 -119.037340 25 1370ft 109kts
07-Jan-19 13:34 35.420012 -119.039863 322 778ft 83kts
07-Jan-19 13:35 35.434633 -119.057169 316 508ft 39kts
07-Jan-19 13:36 35.436280 -119.057796 68 508ft 7kts
07-Jan-19 13:37 35.436282 -119.057008 115 508ft 11kts
07-Jan-19 13:38 35.433013 -119.052978 135 508ft 19kts
07-Jan-19 13:39 35.429458 -119.048661 135 508ft 13kts
07-Jan-19 13:40 35.426728 -119.045380 133 508ft 13kts
07-Jan-19 13:41 35.425205 -119.042504 5 508ft 5kts

Navigation Log

Ident Type
Flight plan parsing failed, navigation log unavailable